Time;durP1;ratioP1;P1;durP2;ratioP2;P2;SDS_P1;SDS_P2;PMS_P1;PMS_P2;Temp;Humidity;BMP_temperature;BMP_pressure;BME280_temperature;BME280_humidity;BME280_pressure;Samples;Min_cycle;Max_cycle;Signal;HPM_P1;HPM_P2
2022/03/04 00:01:58;;;;;;;20.73;9.13;;;2.10;99.90;;;;;;4181301;28;20055;-87
2022/03/04 00:04:00;;;;;;;17.42;8.65;;;2.10;99.90;;;;;;4166216;28;20053;-87
2022/03/04 00:06:00;;;;;;;20.52;9.20;;;2.00;99.90;;;;;;4182678;28;20124;-87
2022/03/04 00:08:01;;;;;;;19.33;8.45;;;2.00;99.90;;;;;;4166600;28;20053;-88
2022/03/04 00:10:02;;;;;;;22.30;9.93;;;1.90;99.90;;;;;;4187947;28;20048;-88
2022/03/04 00:12:07;;;;;;;16.08;8.32;;;2.00;99.90;;;;;;4191711;28;20128;-88
2022/03/04 00:14:08;;;;;;;16.27;7.35;;;1.90;99.90;;;;;;4183505;28;20094;-88
2022/03/04 00:16:09;;;;;;;19.17;8.38;;;1.90;99.90;;;;;;4184275;28;20045;-87
2022/03/04 00:18:10;;;;;;;18.88;8.00;;;3.20;99.90;;;;;;4182459;28;20487;-88
2022/03/04 00:20:11;;;;;;;21.48;8.30;;;1.90;99.90;;;;;;4165965;28;20085;-87
2022/03/04 00:22:14;;;;;;;18.05;8.30;;;1.90;99.90;;;;;;4180616;28;20041;-87
2022/03/04 00:24:15;;;;;;;19.38;8.95;;;1.80;99.90;;;;;;4181920;28;20049;-87
2022/03/04 00:26:16;;;;;;;23.08;7.88;;;2.30;99.90;;;;;;4181923;28;20048;-87
2022/03/04 00:28:18;;;;;;;18.60;7.93;;;2.30;99.90;;;;;;4183327;28;20525;-87
2022/03/04 00:30:20;;;;;;;15.45;7.45;;;2.90;99.90;;;;;;4183885;28;20085;-87
2022/03/04 00:32:20;;;;;;;22.10;8.50;;;1.90;99.90;;;;;;4165761;28;20063;-87
2022/03/04 00:34:22;;;;;;;17.08;8.20;;;1.70;99.90;;;;;;4183712;28;20080;-86
2022/03/04 00:36:23;;;;;;;19.08;7.53;;;2.50;99.90;;;;;;4166008;28;20104;-87
2022/03/04 00:38:25;;;;;;;19.00;8.15;;;1.60;99.90;;;;;;4165674;28;20053;-87
2022/03/04 00:40:26;;;;;;;19.38;8.55;;;1.60;99.90;;;;;;4183788;28;20040;-88
2022/03/04 00:42:28;;;;;;;20.13;8.27;;;2.10;99.90;;;;;;4165900;28;20056;-87
2022/03/04 00:44:28;;;;;;;17.40;7.90;;;1.60;99.90;;;;;;4183500;28;20124;-87
2022/03/04 00:46:30;;;;;;;21.27;9.25;;;1.60;99.90;;;;;;4165790;28;20085;-88
2022/03/04 00:48:32;;;;;;;14.85;7.55;;;1.60;99.90;;;;;;4166334;28;20053;-87
2022/03/04 00:50:34;;;;;;;20.55;8.40;;;1.50;99.90;;;;;;4182875;28;20056;-88
2022/03/04 00:52:42;;;;;;;19.35;7.68;;;1.50;99.90;;;;;;4182137;28;20481;-88
2022/03/04 00:54:44;;;;;;;20.17;8.73;;;1.50;99.90;;;;;;4164162;28;20052;-87
2022/03/04 00:56:45;;;;;;;17.15;7.97;;;2.70;99.90;;;;;;4182432;28;20060;-87
2022/03/04 00:58:48;;;;;;;18.98;9.02;;;1.60;99.90;;;;;;4183311;28;20044;-87
2022/03/04 01:00:50;;;;;;;21.13;9.02;;;2.30;99.90;;;;;;4166680;28;20056;-87
2022/03/04 01:02:51;;;;;;;18.23;7.90;;;1.40;99.90;;;;;;4183699;28;20407;-87
2022/03/04 01:04:52;;;;;;;21.48;9.32;;;1.30;99.90;;;;;;4167455;28;20049;-87
2022/03/04 01:06:54;;;;;;;20.10;9.35;;;1.30;99.90;;;;;;4183949;28;20400;-88
2022/03/04 01:08:55;;;;;;;17.70;7.55;;;1.30;99.90;;;;;;4182740;28;20045;-88
2022/03/04 01:10:56;;;;;;;16.80;7.95;;;1.30;99.90;;;;;;4183707;28;20106;-87
2022/03/04 01:12:58;;;;;;;21.67;8.52;;;1.30;99.90;;;;;;4183795;28;20044;-88
2022/03/04 01:15:00;;;;;;;18.70;8.60;;;2.60;99.90;;;;;;4182457;28;20037;-88
2022/03/04 01:17:01;;;;;;;18.77;7.80;;;1.30;99.90;;;;;;4183545;28;20045;-88
2022/03/04 01:19:02;;;;;;;18.33;7.20;;;1.80;99.90;;;;;;4183453;28;20492;-88
2022/03/04 01:21:03;;;;;;;16.38;7.90;;;1.50;99.90;;;;;;4165441;28;20045;-88
2022/03/04 01:23:05;;;;;;;17.70;7.35;;;2.30;99.90;;;;;;4183480;28;20052;-87
2022/03/04 01:25:06;;;;;;;19.45;8.00;;;1.20;99.90;;;;;;4183559;28;20099;-87
2022/03/04 01:27:07;;;;;;;20.88;8.70;;;1.20;99.90;;;;;;4183072;28;20086;-88
2022/03/04 01:29:09;;;;;;;18.70;8.02;;;1.10;99.90;;;;;;4182603;28;20199;-87
2022/03/04 01:31:12;;;;;;;18.38;8.00;;;1.70;99.90;;;;;;4165658;28;20049;-86
2022/03/04 01:33:13;;;;;;;14.75;7.35;;;1.10;99.90;;;;;;4182673;28;20051;-87
2022/03/04 01:35:13;;;;;;;19.77;8.45;;;1.00;99.90;;;;;;4182319;28;20403;-87
2022/03/04 01:37:14;;;;;;;18.30;7.55;;;1.00;99.90;;;;;;4182687;28;20044;-88
2022/03/04 01:39:15;;;;;;;18.92;8.02;;;1.00;99.90;;;;;;4183332;28;20049;-88
2022/03/04 01:41:17;;;;;;;21.30;8.13;;;0.90;99.90;;;;;;4180777;28;20041;-88
2022/03/04 01:43:17;;;;;;;18.77;9.23;;;0.90;99.90;;;;;;4166783;28;20053;-87
2022/03/04 01:45:18;;;;;;;20.08;7.50;;;0.90;99.90;;;;;;4166503;28;20562;-88
2022/03/04 01:47:20;;;;;;;18.73;7.72;;;1.10;99.90;;;;;;4166813;28;20053;-88
2022/03/04 01:49:21;;;;;;;18.58;7.85;;;0.90;99.90;;;;;;4179835;28;20525;-87
2022/03/04 01:51:22;;;;;;;19.23;8.73;;;0.80;99.90;;;;;;4179628;28;20115;-87
2022/03/04 01:53:22;;;;;;;20.38;9.23;;;1.60;99.90;;;;;;4166474;28;20049;-87
2022/03/04 01:55:25;;;;;;;22.67;8.85;;;0.80;99.90;;;;;;4182357;28;20128;-87
2022/03/04 01:57:26;;;;;;;24.80;8.55;;;0.80;99.90;;;;;;4183317;28;20060;-87
2022/03/04 01:59:28;;;;;;;21.20;8.98;;;0.80;99.90;;;;;;4167347;28;20041;-87
2022/03/04 02:01:30;;;;;;;21.23;9.23;;;2.00;99.90;;;;;;4184594;28;20045;-87
2022/03/04 02:03:31;;;;;;;22.08;9.10;;;0.80;99.90;;;;;;4185143;28;20131;-87
2022/03/04 02:05:32;;;;;;;21.02;8.55;;;1.50;99.90;;;;;;4179550;28;20111;-88
2022/03/04 02:07:34;;;;;;;21.92;8.43;;;0.90;99.90;;;;;;4183046;28;20124;-87
2022/03/04 02:09:35;;;;;;;20.70;7.95;;;2.00;99.90;;;;;;4184054;28;20075;-88
2022/03/04 02:11:38;;;;;;;22.23;9.13;;;2.00;99.90;;;;;;4183469;28;20067;-88
2022/03/04 02:13:42;;;;;;;22.05;9.10;;;1.40;99.90;;;;;;4167065;28;20052;-86
2022/03/04 02:15:46;;;;;;;18.40;8.18;;;1.10;99.90;;;;;;4166780;28;20144;-86
2022/03/04 02:17:47;;;;;;;19.95;9.30;;;0.60;99.90;;;;;;4183999;28;20041;-87
2022/03/04 02:19:53;;;;;;;19.15;9.02;;;0.60;99.90;;;;;;4184589;28;20041;-87
2022/03/04 02:22:01;;;;;;;21.30;8.93;;;1.50;99.90;;;;;;4161645;28;20092;-87
2022/03/04 02:24:04;;;;;;;20.70;9.00;;;0.60;99.90;;;;;;4183532;28;20056;-87
2022/03/04 02:26:05;;;;;;;21.27;8.20;;;0.70;99.90;;;;;;4184681;28;20490;-87
2022/03/04 02:28:06;;;;;;;25.02;9.32;;;0.90;99.90;;;;;;4167635;28;20053;-87
2022/03/04 02:30:08;;;;;;;20.08;9.30;;;1.70;99.90;;;;;;4185465;28;20052;-87
2022/03/04 02:32:09;;;;;;;24.08;9.82;;;0.60;99.90;;;;;;4167144;28;20061;-86
2022/03/04 02:34:12;;;;;;;23.05;9.48;;;2.00;99.90;;;;;;4183585;28;20053;-87
2022/03/04 02:36:13;;;;;;;21.05;9.25;;;1.80;99.90;;;;;;4166454;28;20100;-87
2022/03/04 02:38:16;;;;;;;19.10;9.07;;;0.50;99.90;;;;;;4165053;28;20069;-86
2022/03/04 02:40:18;;;;;;;18.67;8.43;;;1.60;99.90;;;;;;4183365;28;20045;-86
2022/03/04 02:42:19;;;;;;;19.60;8.48;;;1.40;99.90;;;;;;4183249;28;20041;-86
2022/03/04 02:44:23;;;;;;;21.02;8.32;;;0.90;99.90;;;;;;4184586;28;20406;-86
2022/03/04 02:46:24;;;;;;;23.05;9.30;;;0.30;99.90;;;;;;4184914;28;20041;-87
2022/03/04 02:48:25;;;;;;;18.98;9.55;;;0.00;99.90;;;;;;4170007;28;20119;-86
2022/03/04 02:50:27;;;;;;;19.42;7.80;;;0.30;99.90;;;;;;4186946;28;20581;-87
2022/03/04 02:52:29;;;;;;;24.23;10.15;;;1.40;99.90;;;;;;4187492;28;20592;-86
2022/03/04 02:54:31;;;;;;;20.25;9.10;;;0.30;99.90;;;;;;4154135;28;20105;-86
2022/03/04 02:56:32;;;;;;;18.02;8.38;;;0.20;99.90;;;;;;4172021;28;20173;-86
2022/03/04 02:58:34;;;;;;;19.13;8.52;;;1.00;99.90;;;;;;4172759;28;20127;-87
2022/03/04 03:00:36;;;;;;;19.58;8.23;;;1.20;99.90;;;;;;4187162;28;20049;-87
2022/03/04 03:02:37;;;;;;;20.65;8.25;;;1.60;99.90;;;;;;4172071;28;20487;-88
2022/03/04 03:04:39;;;;;;;18.25;9.00;;;1.80;99.90;;;;;;4187271;28;20515;-87
2022/03/04 03:06:41;;;;;;;21.95;8.70;;;1.20;99.90;;;;;;4189298;28;20556;-88
2022/03/04 03:08:43;;;;;;;26.20;9.50;;;-0.90;99.90;;;;;;4188844;28;20129;-87
2022/03/04 03:10:45;;;;;;;22.20;8.95;;;0.30;99.90;;;;;;4171882;28;20049;-87
2022/03/04 03:12:48;;;;;;;20.08;8.40;;;0.80;99.90;;;;;;4187818;28;20041;-88
2022/03/04 03:14:51;;;;;;;36.80;10.88;;;1.30;99.90;;;;;;4171049;28;20124;-88
2022/03/04 03:16:52;;;;;;;20.00;8.82;;;0.90;99.90;;;;;;4171828;28;20049;-87
2022/03/04 03:18:53;;;;;;;24.02;9.10;;;0.00;99.90;;;;;;4188543;28;20060;-87
2022/03/04 03:20:55;;;;;;;20.38;8.40;;;0.20;99.90;;;;;;4188494;28;20037;-87
2022/03/04 03:22:56;;;;;;;23.63;8.68;;;0.00;99.90;;;;;;4188424;28;20113;-86
2022/03/04 03:25:01;;;;;;;22.77;10.07;;;1.50;99.90;;;;;;4187704;28;20049;-87
2022/03/04 03:27:01;;;;;;;25.30;10.95;;;-0.20;99.90;;;;;;4187481;28;20073;-87
2022/03/04 03:29:02;;;;;;;28.05;9.23;;;0.10;99.90;;;;;;4188773;28;20521;-87
2022/03/04 03:31:03;;;;;;;24.90;9.23;;;1.00;99.90;;;;;;4187583;28;20041;-87
2022/03/04 03:33:05;;;;;;;19.75;8.88;;;0.60;99.90;;;;;;4187170;28;20045;-87
2022/03/04 03:35:08;;;;;;;26.75;9.50;;;0.30;99.90;;;;;;4170697;28;20123;-87
2022/03/04 03:37:10;;;;;;;21.52;9.27;;;0.10;99.90;;;;;;4186765;28;20053;-87
2022/03/04 03:39:11;;;;;;;21.52;8.73;;;0.10;99.90;;;;;;4188666;28;20052;-87
2022/03/04 03:41:13;;;;;;;18.40;8.10;;;-0.40;99.90;;;;;;4170598;28;20049;-86
2022/03/04 03:43:15;;;;;;;22.38;8.38;;;0.00;99.90;;;;;;4154830;28;20384;-86
2022/03/04 03:45:17;;;;;;;22.63;8.77;;;0.20;99.90;;;;;;4172090;28;20112;-86
2022/03/04 03:47:19;;;;;;;25.15;9.52;;;0.00;99.90;;;;;;4170222;28;20153;-88
2022/03/04 03:49:22;;;;;;;25.23;9.80;;;0.00;99.90;;;;;;4171892;28;20041;-87
2022/03/04 03:51:25;;;;;;;23.13;7.90;;;0.50;99.90;;;;;;4171929;28;20038;-87
2022/03/04 03:53:26;;;;;;;23.70;9.77;;;-0.30;99.90;;;;;;4171336;28;20045;-87
2022/03/04 03:55:28;;;;;;;21.92;9.90;;;0.40;99.90;;;;;;4154692;28;20471;-87
2022/03/04 03:57:31;;;;;;;23.50;9.95;;;-0.10;99.90;;;;;;4171115;28;20088;-87
2022/03/04 03:59:34;;;;;;;23.85;10.20;;;-0.20;99.90;;;;;;4170589;28;20080;-87
2022/03/04 04:01:38;;;;;;;23.27;8.93;;;-0.50;99.90;;;;;;4171526;28;20043;-87
2022/03/04 04:03:39;;;;;;;23.10;8.93;;;-0.20;99.90;;;;;;4172483;28;20057;-87
2022/03/04 04:05:41;;;;;;;26.45;10.18;;;-0.30;99.90;;;;;;4171895;28;20108;-86
2022/03/04 04:07:43;;;;;;;21.73;9.00;;;-0.30;99.90;;;;;;4171971;28;20125;-87
2022/03/04 04:09:45;;;;;;;24.48;8.55;;;-1.50;99.90;;;;;;4173084;28;20471;-86
2022/03/04 04:11:46;;;;;;;25.92;8.90;;;0.30;99.90;;;;;;4170916;28;20606;-87
2022/03/04 04:13:47;;;;;;;21.77;9.05;;;-0.40;99.90;;;;;;4172789;28;20046;-87
2022/03/04 04:15:51;;;;;;;24.20;10.43;;;-0.40;99.90;;;;;;4171246;28;20081;-87
2022/03/04 04:17:53;;;;;;;26.27;9.88;;;-0.40;99.90;;;;;;4171506;28;20065;-87
2022/03/04 04:19:54;;;;;;;24.75;9.70;;;0.30;99.90;;;;;;4172370;28;20056;-88
2022/03/04 04:22:01;;;;;;;25.33;9.90;;;-0.30;99.90;;;;;;4171035;28;20045;-87
2022/03/04 04:24:04;;;;;;;25.83;9.35;;;-0.90;99.90;;;;;;4172224;28;20060;-87
2022/03/04 04:26:06;;;;;;;24.75;9.70;;;-0.40;99.90;;;;;;4172873;28;20041;-88
2022/03/04 04:28:08;;;;;;;24.25;10.00;;;1.10;99.90;;;;;;4155567;28;20116;-87
2022/03/04 04:30:10;;;;;;;25.77;10.45;;;-0.10;99.90;;;;;;4155672;28;20100;-87
2022/03/04 04:32:10;;;;;;;25.35;10.43;;;-0.40;99.90;;;;;;4171252;28;20064;-86
2022/03/04 04:34:14;;;;;;;25.20;10.15;;;-0.30;99.90;;;;;;4173372;28;20077;-87
2022/03/04 04:36:16;;;;;;;31.13;10.35;;;-0.30;99.90;;;;;;4171579;28;20470;-87
2022/03/04 04:38:17;;;;;;;25.05;9.90;;;-0.30;99.90;;;;;;4172714;28;20046;-87
2022/03/04 04:40:18;;;;;;;24.63;10.57;;;-0.30;99.90;;;;;;4173034;28;20071;-87
2022/03/04 04:42:20;;;;;;;26.42;10.15;;;-0.20;99.90;;;;;;4172031;28;20385;-87
2022/03/04 04:44:22;;;;;;;27.00;9.73;;;1.30;99.90;;;;;;4172747;28;20048;-86
2022/03/04 04:46:24;;;;;;;31.70;11.38;;;0.30;99.90;;;;;;4154715;28;20046;-87
2022/03/04 04:48:26;;;;;;;28.10;11.75;;;-0.30;99.90;;;;;;4171707;28;20049;-87
2022/03/04 04:50:27;;;;;;;28.15;10.18;;;0.30;99.90;;;;;;4171707;28;20041;-87
2022/03/04 04:52:28;;;;;;;30.00;11.02;;;-0.30;99.90;;;;;;4170705;28;20057;-87
2022/03/04 04:54:30;;;;;;;23.70;10.20;;;0.60;99.90;;;;;;4168997;28;20112;-87
2022/03/04 04:56:32;;;;;;;23.52;9.70;;;-0.30;99.90;;;;;;4152998;28;20503;-87
2022/03/04 04:58:35;;;;;;;25.75;10.95;;;-0.20;99.90;;;;;;4169890;28;20042;-87
2022/03/04 05:00:38;;;;;;;26.60;11.27;;;0.60;99.90;;;;;;4170573;28;20038;-87
2022/03/04 05:02:41;;;;;;;29.92;11.68;;;1.10;99.90;;;;;;4170925;28;20407;-87
2022/03/04 05:04:43;;;;;;;28.95;10.80;;;0.90;99.90;;;;;;4152724;28;20492;-87
2022/03/04 05:06:47;;;;;;;24.08;10.75;;;-0.30;99.90;;;;;;4153715;28;20108;-87
2022/03/04 05:08:49;;;;;;;30.25;12.07;;;-0.30;99.90;;;;;;4171794;28;20099;-87
2022/03/04 05:10:49;;;;;;;31.45;10.27;;;0.00;99.90;;;;;;4155063;28;20488;-86
2022/03/04 05:12:51;;;;;;;31.60;11.35;;;-0.30;99.90;;;;;;4171462;28;20049;-87
2022/03/04 05:14:57;;;;;;;27.40;10.57;;;0.00;99.90;;;;;;4172745;28;20041;-87
2022/03/04 05:16:59;;;;;;;29.17;11.73;;;-0.60;99.90;;;;;;4172934;28;20044;-87
2022/03/04 05:19:01;;;;;;;27.42;10.35;;;1.10;99.90;;;;;;4176457;28;20045;-87
2022/03/04 05:21:03;;;;;;;27.35;11.75;;;-0.40;99.90;;;;;;4175769;28;20120;-86
2022/03/04 05:23:04;;;;;;;28.73;11.32;;;1.10;99.90;;;;;;4177822;28;20103;-85
2022/03/04 05:25:07;;;;;;;31.60;12.45;;;-0.10;99.90;;;;;;4176954;28;20049;-86
2022/03/04 05:27:10;;;;;;;33.65;11.20;;;-0.90;99.90;;;;;;4173097;28;20045;-87
2022/03/04 05:29:13;;;;;;;30.70;10.38;;;0.90;99.90;;;;;;4171083;28;20081;-87
2022/03/04 05:31:18;;;;;;;30.95;11.77;;;0.40;99.90;;;;;;4172052;28;20058;-87
2022/03/04 05:33:20;;;;;;;31.67;12.13;;;-0.30;99.90;;;;;;4155153;28;20147;-86
2022/03/04 05:35:21;;;;;;;27.38;11.82;;;-0.40;99.90;;;;;;4170316;28;20059;-86
2022/03/04 05:37:25;;;;;;;27.35;11.15;;;-0.30;99.90;;;;;;4170727;28;20045;-86
2022/03/04 05:39:28;;;;;;;30.63;11.43;;;0.80;99.90;;;;;;4154279;28;20049;-86
2022/03/04 05:41:28;;;;;;;27.35;10.95;;;0.00;99.90;;;;;;4170249;28;20052;-87
2022/03/04 05:43:30;;;;;;;29.70;11.75;;;-0.30;99.90;;;;;;4185773;28;20045;-87
2022/03/04 05:45:33;;;;;;;27.67;11.40;;;1.00;99.90;;;;;;4188045;28;20068;-87
2022/03/04 05:47:38;;;;;;;29.38;11.65;;;0.10;99.90;;;;;;4186832;28;20041;-86
2022/03/04 05:49:43;;;;;;;27.20;11.48;;;0.00;99.90;;;;;;4185951;28;20068;-87
2022/03/04 05:51:46;;;;;;;26.88;10.80;;;0.30;99.90;;;;;;4187499;28;20041;-87
2022/03/04 05:53:49;;;;;;;32.10;12.00;;;0.00;99.90;;;;;;4187027;28;20065;-88
2022/03/04 05:55:50;;;;;;;25.52;10.50;;;-0.30;99.90;;;;;;4189936;28;20033;-87
2022/03/04 05:57:54;;;;;;;25.00;11.02;;;0.70;99.90;;;;;;4169760;28;20052;-86
2022/03/04 05:59:55;;;;;;;30.83;11.75;;;-0.30;99.90;;;;;;4168674;28;20053;-87
2022/03/04 06:01:57;;;;;;;24.95;11.05;;;0.30;99.90;;;;;;4187429;28;20045;-87
2022/03/04 06:03:58;;;;;;;25.17;9.27;;;-0.10;99.90;;;;;;4186020;28;20102;-87
2022/03/04 06:06:01;;;;;;;27.52;10.73;;;-0.20;99.90;;;;;;4185945;28;20469;-88
2022/03/04 06:08:04;;;;;;;27.85;11.65;;;0.10;99.90;;;;;;4186627;28;20041;-88
2022/03/04 06:10:07;;;;;;;29.13;10.07;;;-0.20;99.90;;;;;;4185725;28;20037;-87
2022/03/04 06:12:08;;;;;;;28.10;11.77;;;-0.30;99.90;;;;;;4184150;28;20376;-87
2022/03/04 06:14:10;;;;;;;27.77;10.13;;;1.20;99.90;;;;;;4185773;28;20126;-87
2022/03/04 06:16:11;;;;;;;28.00;11.13;;;-0.30;99.90;;;;;;4186451;28;20081;-87
2022/03/04 06:18:12;;;;;;;23.17;9.05;;;1.10;99.90;;;;;;4185141;28;20048;-88
2022/03/04 06:20:13;;;;;;;27.95;10.73;;;-0.30;99.90;;;;;;4185329;28;20121;-88
2022/03/04 06:22:20;;;;;;;26.42;11.25;;;0.90;99.90;;;;;;4186305;28;20045;-87
2022/03/04 06:24:21;;;;;;;27.75;11.27;;;-0.30;99.90;;;;;;4189174;28;20088;-87
2022/03/04 06:26:23;;;;;;;24.30;10.52;;;-0.30;99.90;;;;;;4190648;28;20053;-88
2022/03/04 06:28:26;;;;;;;25.45;10.13;;;-0.10;99.90;;;;;;4190200;28;20106;-88
2022/03/04 06:30:30;;;;;;;24.80;10.73;;;0.40;99.90;;;;;;4189931;28;20045;-88
2022/03/04 06:32:31;;;;;;;25.45;10.02;;;-0.40;99.90;;;;;;4172839;28;20136;-88
2022/03/04 06:34:37;;;;;;;26.73;11.02;;;-0.60;99.90;;;;;;4189849;28;20048;-88
2022/03/04 06:36:42;;;;;;;27.52;11.93;;;0.40;99.90;;;;;;4189778;28;20045;-87
2022/03/04 06:38:44;;;;;;;28.02;9.80;;;-0.40;99.90;;;;;;4172787;28;20046;-88
2022/03/04 06:40:46;;;;;;;26.65;10.40;;;0.60;99.90;;;;;;4191263;28;20076;-87
2022/03/04 06:42:50;;;;;;;28.27;11.60;;;1.30;99.90;;;;;;4172358;28;20877;-87
2022/03/04 06:44:51;;;;;;;29.40;10.55;;;-0.30;99.90;;;;;;4189787;28;20052;-87
2022/03/04 06:47:03;;;;;;;25.73;10.13;;;0.90;99.90;;;;;;4189216;28;20037;-87
2022/03/04 06:49:10;;;;;;;29.80;12.43;;;-0.40;99.90;;;;;;4189904;28;20047;-87
2022/03/04 06:51:11;;;;;;;26.90;10.40;;;-0.50;99.90;;;;;;4191998;28;20117;-87
2022/03/04 06:53:18;;;;;;;28.23;11.55;;;0.40;99.90;;;;;;4173201;28;20563;-88
2022/03/04 06:55:25;;;;;;;32.00;11.60;;;-0.30;99.90;;;;;;4172911;28;20056;-86
2022/03/04 06:57:25;;;;;;;29.58;11.07;;;0.90;99.90;;;;;;4190164;28;20041;-86
2022/03/04 06:59:26;;;;;;;29.85;11.30;;;0.20;99.90;;;;;;4188910;28;20088;-86
2022/03/04 07:01:27;;;;;;;26.42;11.13;;;-0.40;99.90;;;;;;4173650;28;20121;-86
2022/03/04 07:03:30;;;;;;;28.65;11.45;;;0.70;99.90;;;;;;4190427;28;20045;-85
2022/03/04 07:05:31;;;;;;;30.60;12.25;;;-0.40;99.90;;;;;;4191039;28;20056;-86
2022/03/04 07:07:34;;;;;;;32.05;12.02;;;-0.40;99.90;;;;;;4173760;28;20064;-87
2022/03/04 07:09:40;;;;;;;25.77;11.02;;;-0.30;99.90;;;;;;4191208;28;20041;-86
2022/03/04 07:11:41;;;;;;;30.10;12.35;;;-0.20;99.90;;;;;;4189263;28;20040;-85
2022/03/04 07:13:42;;;;;;;29.17;11.02;;;0.80;99.90;;;;;;4187973;28;20423;-84
2022/03/04 07:15:45;;;;;;;36.65;13.65;;;1.00;99.90;;;;;;4189399;28;20041;-85
2022/03/04 07:17:47;;;;;;;33.22;12.23;;;-0.60;99.90;;;;;;4170891;28;20124;-85
2022/03/04 07:19:51;;;;;;;32.85;12.35;;;0.70;99.90;;;;;;4187317;28;20122;-85
2022/03/04 07:21:52;;;;;;;32.35;11.30;;;1.10;99.90;;;;;;4188036;28;20041;-85
2022/03/04 07:23:56;;;;;;;33.05;11.15;;;-0.20;99.90;;;;;;4188817;28;20048;-84
2022/03/04 07:25:57;;;;;;;31.80;12.35;;;-0.20;99.90;;;;;;4188308;28;20041;-85
2022/03/04 07:28:02;;;;;;;30.58;12.63;;;1.20;99.90;;;;;;4170935;28;20045;-85
2022/03/04 07:30:08;;;;;;;36.47;13.50;;;-0.10;99.90;;;;;;4171253;28;20068;-85
2022/03/04 07:32:08;;;;;;;37.35;12.65;;;-0.30;99.90;;;;;;4187764;28;20099;-85
2022/03/04 07:34:10;;;;;;;28.65;12.32;;;0.20;99.90;;;;;;4187584;28;20074;-85
2022/03/04 07:36:11;;;;;;;31.83;11.98;;;-0.30;99.90;;;;;;4171447;28;20056;-85
2022/03/04 07:38:13;;;;;;;31.70;12.55;;;-0.30;99.90;;;;;;4188900;28;20124;-85
2022/03/04 07:40:15;;;;;;;26.63;11.32;;;-1.30;99.90;;;;;;4188726;28;20116;-84
2022/03/04 07:42:16;;;;;;;30.23;13.13;;;0.70;99.90;;;;;;4187195;28;20525;-85
2022/03/04 07:44:18;;;;;;;31.17;11.85;;;0.60;99.90;;;;;;4188276;28;20044;-85
2022/03/04 07:46:20;;;;;;;31.33;13.45;;;-1.00;99.90;;;;;;4186806;28;20045;-85
2022/03/04 07:48:21;;;;;;;30.30;11.77;;;0.00;99.90;;;;;;4187024;28;20560;-84
2022/03/04 07:50:22;;;;;;;28.00;12.00;;;1.10;99.90;;;;;;4170421;28;20045;-84
2022/03/04 07:52:31;;;;;;;27.27;10.30;;;0.00;99.90;;;;;;4186539;28;20053;-85
2022/03/04 07:54:36;;;;;;;29.35;11.50;;;0.10;99.90;;;;;;4188206;28;20068;-85
2022/03/04 07:56:37;;;;;;;26.98;11.45;;;0.80;99.90;;;;;;4169765;28;20483;-85
2022/03/04 07:58:38;;;;;;;28.52;10.50;;;1.10;99.90;;;;;;4187114;28;20056;-86
2022/03/04 08:00:39;;;;;;;30.38;11.57;;;0.20;99.90;;;;;;4187265;28;20048;-83
2022/03/04 08:02:40;;;;;;;28.10;10.65;;;0.60;99.90;;;;;;4187733;28;20041;-85
2022/03/04 08:04:41;;;;;;;29.75;10.88;;;1.50;99.90;;;;;;4169790;28;20049;-85
2022/03/04 08:06:42;;;;;;;21.45;9.13;;;0.20;99.90;;;;;;4186263;28;20037;-84
2022/03/04 08:08:43;;;;;;;22.65;9.32;;;0.30;99.90;;;;;;4170023;28;20482;-84
2022/03/04 08:10:45;;;;;;;26.38;10.43;;;1.50;99.90;;;;;;4186751;28;20052;-85
2022/03/04 08:12:47;;;;;;;24.80;9.65;;;0.30;99.90;;;;;;4187281;28;20086;-84
2022/03/04 08:14:48;;;;;;;23.00;9.00;;;1.40;99.90;;;;;;4168525;28;20046;-85
2022/03/04 08:16:50;;;;;;;24.85;9.07;;;0.40;99.90;;;;;;4186610;28;20047;-84
2022/03/04 08:18:53;;;;;;;20.40;8.98;;;0.50;99.90;;;;;;4185674;28;20051;-84
2022/03/04 08:20:54;;;;;;;21.33;8.95;;;1.10;99.90;;;;;;4187111;28;20076;-84
2022/03/04 08:22:56;;;;;;;20.52;8.80;;;2.00;99.90;;;;;;4188380;28;20045;-84
2022/03/04 08:25:04;;;;;;;21.77;9.00;;;0.60;99.90;;;;;;4172974;28;20531;-85
2022/03/04 08:27:07;;;;;;;24.65;9.55;;;0.70;99.90;;;;;;4186224;28;20044;-84
2022/03/04 08:29:10;;;;;;;23.10;9.27;;;1.60;99.90;;;;;;4187471;28;20096;-85
2022/03/04 08:31:11;;;;;;;18.95;8.60;;;1.00;99.90;;;;;;4168442;28;20113;-84
2022/03/04 08:33:14;;;;;;;21.00;10.05;;;1.80;99.90;;;;;;4185584;28;20415;-86
2022/03/04 08:35:15;;;;;;;26.17;10.20;;;0.80;99.90;;;;;;4187172;28;20065;-86
2022/03/04 08:37:16;;;;;;;20.60;9.70;;;2.30;99.90;;;;;;4188932;28;20039;-87
2022/03/04 08:39:17;;;;;;;20.33;9.38;;;0.70;99.90;;;;;;4188348;28;20049;-87
2022/03/04 08:41:20;;;;;;;22.90;9.63;;;1.00;99.90;;;;;;4188733;28;20051;-87
2022/03/04 08:43:21;;;;;;;23.98;9.23;;;1.00;99.90;;;;;;4184181;28;20396;-86
2022/03/04 08:45:23;;;;;;;19.60;9.00;;;2.30;99.90;;;;;;4165915;28;20084;-86
2022/03/04 08:47:25;;;;;;;20.10;8.77;;;2.70;99.90;;;;;;4171292;28;20084;-87
2022/03/04 08:49:27;;;;;;;23.20;9.52;;;1.20;99.90;;;;;;4178071;28;20045;-85
2022/03/04 08:51:29;;;;;;;22.20;8.65;;;1.50;99.90;;;;;;4192104;28;20049;-86
2022/03/04 08:53:31;;;;;;;20.52;8.68;;;1.50;99.90;;;;;;4193449;28;20094;-87
2022/03/04 08:55:32;;;;;;;18.88;8.32;;;3.10;99.90;;;;;;4189184;28;20714;-86
2022/03/04 08:57:32;;;;;;;18.60;8.93;;;1.60;99.90;;;;;;4182774;28;20030;-85
2022/03/04 08:59:33;;;;;;;20.77;8.48;;;3.40;99.90;;;;;;4186252;28;20041;-87
2022/03/04 09:01:35;;;;;;;16.65;8.23;;;2.90;99.90;;;;;;4183279;28;20076;-86
2022/03/04 09:03:38;;;;;;;16.75;7.82;;;3.20;99.90;;;;;;4185500;28;20029;-87
2022/03/04 09:05:56;;;;;;;;;;;;;;;;;;;;;
2022/03/04 09:07:58;;;;;;;21.50;9.88;;;2.60;99.90;;;;;;4175914;28;20225;-86
2022/03/04 09:10:00;;;;;;;16.92;8.20;;;4.50;99.90;;;;;;4184575;28;20080;-86
2022/03/04 09:12:01;;;;;;;19.40;8.68;;;5.50;99.90;;;;;;4191272;28;20041;-86
2022/03/04 09:14:03;;;;;;;17.65;8.25;;;3.70;99.90;;;;;;4196828;28;20047;-86
2022/03/04 09:16:04;;;;;;;15.32;7.30;;;4.90;99.90;;;;;;4195790;28;20081;-87
2022/03/04 09:18:05;;;;;;;16.50;7.32;;;4.80;99.90;;;;;;4189313;28;20088;-86
2022/03/04 09:20:08;;;;;;;17.20;7.90;;;5.10;99.90;;;;;;4200370;28;20037;-87
2022/03/04 09:22:10;;;;;;;16.92;7.75;;;;;;;;;;4201573;28;20037;-87
2022/03/04 09:24:12;;;;;;;19.05;8.70;;;;;;;;;;4199468;28;20040;-86
2022/03/04 09:26:14;;;;;;;15.93;7.50;;;;;;;;;;4200214;28;20041;-86
2022/03/04 09:28:18;;;;;;;14.75;7.88;;;;;;;;;;4200590;28;20037;-85
2022/03/04 09:30:19;;;;;;;14.95;7.65;;;;;;;;;;4201042;28;20037;-86
2022/03/04 09:32:20;;;;;;;14.98;7.07;;;;;;;;;;4200105;28;20266;-87
2022/03/04 09:34:22;;;;;;;12.52;6.82;;;;;;;;;;4200862;28;20049;-86
2022/03/04 09:36:24;;;;;;;14.85;7.55;;;;;;;;;;4198778;28;20052;-87
2022/03/04 09:38:25;;;;;;;13.68;7.30;;;;;;;;;;4193998;28;20051;-86
2022/03/04 09:40:27;;;;;;;16.58;7.15;;;;;;;;;;4198112;28;20068;-86
2022/03/04 09:42:28;;;;;;;13.45;7.25;;;;;;;;;;4197232;28;20086;-86
2022/03/04 09:44:29;;;;;;;13.00;6.45;;;;;;;;;;4190964;28;20041;-86
2022/03/04 09:46:31;;;;;;;15.82;8.07;;;;;;;;;;4195038;28;20097;-86
2022/03/04 09:48:39;;;;;;;14.27;7.00;;;;;;;;;;4199208;28;20044;-86
2022/03/04 09:50:43;;;;;;;16.08;7.40;;;;;;;;;;4196460;28;20048;-85
2022/03/04 09:52:46;;;;;;;12.65;6.28;;;;;;;;;;4193351;28;20060;-86
2022/03/04 09:54:51;;;;;;;12.98;7.05;;;;;;;;;;4195155;28;20115;-86
2022/03/04 09:56:53;;;;;;;15.52;8.15;;;;;;;;;;4196991;28;20049;-87
2022/03/04 09:58:55;;;;;;;13.75;6.65;;;;;;;;;;4187942;28;20041;-87
2022/03/04 10:00:56;;;;;;;14.10;6.85;;;;;;;;;;4186337;28;20059;-86
2022/03/04 10:02:58;;;;;;;14.30;7.05;;;;;;;;;;4182813;28;20048;-87
2022/03/04 10:04:59;;;;;;;11.30;6.68;;;;;;;;;;4182728;28;20037;-87
2022/03/04 10:07:11;;;;;;;10.85;6.68;;;;;;;;;;4187911;28;20041;-87
2022/03/04 10:09:13;;;;;;;11.35;6.80;;;;;;;;;;4193252;28;20040;-87
2022/03/04 10:11:38;;;;;;;14.55;7.55;;;;;;;;;;4192570;28;20120;-87
2022/03/04 10:13:49;;;;;;;13.68;7.18;;;;;;;;;;4183574;28;20037;-87
2022/03/04 10:15:56;;;;;;;12.50;6.80;;;;;;;;;;4182687;28;20549;-87
2022/03/04 10:18:04;;;;;;;12.43;6.82;;;;;;;;;;4178464;28;20120;-87
2022/03/04 10:20:15;;;;;;;12.77;6.75;;;;;;;;;;4181769;28;20078;-86
2022/03/04 10:22:16;;;;;;;14.48;6.47;;;;;;;;;;4184901;28;20512;-86
2022/03/04 10:24:20;;;;;;;11.27;6.65;;;;;;;;;;4185651;28;20052;-85
2022/03/04 10:26:27;;;;;;;11.98;7.60;;;;;;;;;;4181428;28;20059;-86
2022/03/04 10:28:31;;;;;;;12.70;7.05;;;;;;;;;;4178383;28;20037;-86
2022/03/04 10:30:34;;;;;;;14.43;7.85;;;;;;;;;;4182475;28;20380;-87
2022/03/04 10:32:35;;;;;;;10.70;6.78;;;;;;;;;;4182869;28;20479;-86
2022/03/04 10:34:45;;;;;;;12.88;6.93;;;;;;;;;;4181268;28;20049;-86
2022/03/04 10:36:55;;;;;;;13.52;7.40;;;;;;;;;;4168755;28;20042;-87
2022/03/04 10:39:08;;;;;;;12.77;7.18;;;;;;;;;;4182687;28;20044;-87
2022/03/04 10:41:22;;;;;;;12.55;7.00;;;;;;;;;;4182651;28;20045;-85
2022/03/04 10:43:30;;;;;;;12.32;7.07;;;;;;;;;;4171789;28;20091;-86